Terminal Aerodrome Forecast
Issued by NWS Wakefield, VA

Home | Current Version | Previous Version | Text Only | Print | Product List | Glossary On
Versions: 1 2 3 4 5 6 7 8 9 10 11 12 13 14 15 16
000
FTUS41 KAKQ 221720
TAFECG
TAF
KECG 221720Z 2218/2318 30008KT P6SM SCT040 SCT200
     FM222300 VRB03KT P6SM SKC
     FM231000 VRB03KT 3SM BR SKC
     FM231300 35007KT P6SM SCT200=

USA.gov is the U.S. government's official web portal to all federal, state and local government web resources and services.